Time;durP1;ratioP1;P1;durP2;ratioP2;P2;SDS_P1;SDS_P2;PMS_P1;PMS_P2;Temp;Humidity;BMP_temperature;BMP_pressure;BME280_temperature;BME280_humidity;BME280_pressure;Samples;Min_cycle;Max_cycle;Signal;HPM_P1;HPM_P2
2022/10/31 00:01:29;;;;;;;13.50;3.65;;;;;;;11.73;95.84;99942.63;4947791;28;20406;-42
2022/10/31 00:03:56;;;;;;;14.50;5.10;;;;;;;11.75;96.00;99937.50;4951210;28;20074;-43
2022/10/31 00:06:23;;;;;;;9.95;3.47;;;;;;;11.77;96.28;99946.22;4952138;28;20141;-45
2022/10/31 00:08:58;;;;;;;14.68;5.57;;;;;;;11.80;96.45;99942.72;4952792;28;20457;-43
2022/10/31 00:11:25;;;;;;;16.55;4.15;;;;;;;11.83;96.53;99942.78;4953133;28;20048;-42
2022/10/31 00:13:52;;;;;;;16.92;4.40;;;;;;;11.87;96.62;99951.13;4952251;28;20050;-42
2022/10/31 00:16:21;;;;;;;13.45;4.95;;;;;;;11.89;96.70;99941.28;4952186;28;20055;-42
2022/10/31 00:18:49;;;;;;;17.98;4.60;;;;;;;11.90;96.91;99940.09;4950739;28;20043;-42
2022/10/31 00:21:16;;;;;;;15.38;3.83;;;;;;;11.89;96.85;99946.00;4952679;28;20047;-42
2022/10/31 00:23:43;;;;;;;10.15;3.92;;;;;;;11.87;97.26;99945.59;4950702;28;20228;-41
2022/10/31 00:26:10;;;;;;;17.38;3.38;;;;;;;11.83;97.25;99941.97;4948475;28;20047;-42
2022/10/31 00:28:36;;;;;;;14.50;3.60;;;;;;;11.80;97.38;99939.94;4952166;28;20039;-42
2022/10/31 00:31:06;;;;;;;15.95;3.47;;;;;;;11.77;97.66;99935.94;4952298;28;20055;-42
2022/10/31 00:33:36;;;;;;;23.58;4.60;;;;;;;11.75;97.87;99943.84;4951784;28;20054;-45
2022/10/31 00:36:04;;;;;;;18.40;4.00;;;;;;;11.72;98.07;99938.22;4941279;28;20043;-42
2022/10/31 00:38:31;;;;;;;21.73;5.60;;;;;;;11.70;98.09;99935.03;4952157;28;20086;-44
2022/10/31 00:40:58;;;;;;;12.18;3.70;;;;;;;11.65;98.15;99925.00;4951802;29;20047;-42
2022/10/31 00:43:25;;;;;;;11.10;2.42;;;;;;;11.65;98.61;99933.31;4956370;28;20043;-42
2022/10/31 00:45:51;;;;;;;11.32;3.10;;;;;;;11.66;98.47;99925.81;4951558;28;20047;-41
2022/10/31 00:48:18;;;;;;;12.40;2.28;;;;;;;11.66;98.32;99934.94;4963307;28;20056;-42
2022/10/31 00:50:45;;;;;;;12.20;2.50;;;;;;;11.64;98.21;99937.28;4947954;29;20414;-42
2022/10/31 00:53:11;;;;;;;7.82;1.90;;;;;;;11.64;98.27;99931.75;4946159;29;20077;-43
2022/10/31 00:55:38;;;;;;;9.00;2.53;;;;;;;11.63;98.27;99935.69;4951316;28;20573;-42
2022/10/31 00:58:05;;;;;;;17.80;4.32;;;;;;;11.63;98.33;99922.63;4948809;28;20454;-42
2022/10/31 01:00:31;;;;;;;5.80;1.83;;;;;;;11.65;98.39;99919.47;4948051;28;20130;-42
2022/10/31 01:02:58;;;;;;;10.32;1.95;;;;;;;11.65;98.30;99915.91;4950893;28;20063;-49
2022/10/31 01:05:25;;;;;;;11.70;2.80;;;;;;;11.66;98.02;99914.72;4951478;28;20075;-42
2022/10/31 01:07:52;;;;;;;19.45;3.92;;;;;;;11.67;98.23;99908.03;4951338;28;20422;-49
2022/10/31 01:10:19;;;;;;;21.13;4.03;;;;;;;11.67;98.14;99908.03;4940376;28;20486;-42
2022/10/31 01:12:47;;;;;;;18.73;3.00;;;;;;;11.68;98.38;99915.94;4950874;28;20059;-42
2022/10/31 01:15:20;;;;;;;15.05;3.85;;;;;;;11.69;98.48;99906.50;4949486;28;20602;-42
2022/10/31 01:17:47;;;;;;;12.23;2.83;;;;;;;11.70;98.52;99910.09;4943039;29;20168;-42
2022/10/31 01:20:16;;;;;;;18.77;2.97;;;;;;;11.74;98.51;99913.69;4951024;28;20039;-45
2022/10/31 01:22:42;;;;;;;10.27;2.17;;;;;;;11.76;98.43;99906.59;4950413;28;20086;-42
2022/10/31 01:25:09;;;;;;;18.08;2.92;;;;;;;11.79;98.49;99910.59;4947358;28;20055;-42
2022/10/31 01:27:36;;;;;;;23.23;5.30;;;;;;;11.83;98.69;99911.47;4950087;28;20445;-42
2022/10/31 01:30:04;;;;;;;13.35;2.85;;;;;;;11.85;98.42;99909.91;4948014;28;20046;-47
2022/10/31 01:32:32;;;;;;;20.98;5.40;;;;;;;11.89;98.68;99907.19;4948425;29;20102;-43
2022/10/31 01:34:58;;;;;;;14.73;2.35;;;;;;;11.93;98.72;99910.81;4948954;29;20553;-42
2022/10/31 01:37:25;;;;;;;14.85;2.47;;;;;;;11.97;98.82;99912.47;4950944;28;20377;-42
2022/10/31 01:39:52;;;;;;;11.85;3.25;;;;;;;12.02;98.75;99903.03;4950817;28;20058;-42
2022/10/31 01:42:21;;;;;;;19.50;3.15;;;;;;;12.07;98.51;99905.47;4950574;28;20426;-43
2022/10/31 01:44:53;;;;;;;16.90;3.03;;;;;;;12.09;98.42;99908.66;4950944;29;20043;-41
2022/10/31 01:47:31;;;;;;;15.18;4.20;;;;;;;12.11;98.49;99917.41;4950510;29;20051;-42
2022/10/31 01:50:00;;;;;;;13.10;2.72;;;;;;;12.11;98.60;99904.34;4949794;29;20054;-42
2022/10/31 01:52:32;;;;;;;12.63;2.20;;;;;;;12.12;98.78;99903.19;4949712;28;20054;-41
2022/10/31 01:55:07;;;;;;;23.47;4.20;;;;;;;12.14;98.76;99898.06;4950718;28;20058;-42
2022/10/31 01:57:37;;;;;;;13.38;2.00;;;;;;;12.16;98.77;99897.66;4948207;28;20476;-46
2022/10/31 02:00:07;;;;;;;9.60;1.92;;;;;;;12.19;98.91;99908.00;4947539;28;20043;-42
2022/10/31 02:02:35;;;;;;;14.68;2.90;;;;;;;12.22;98.69;99898.94;4950677;28;20421;-42
2022/10/31 02:05:06;;;;;;;12.43;3.03;;;;;;;12.26;98.53;99896.22;4950183;28;20050;-48
2022/10/31 02:07:39;;;;;;;;;;;;;;;12.26;98.46;99894.22;4950341;28;20110;-41
2022/10/31 02:10:06;;;;;;;6.60;1.57;;;;;;;12.23;98.38;99888.66;4949507;29;19982;-44
2022/10/31 02:12:35;;;;;;;6.22;1.45;;;;;;;12.17;98.07;99880.66;4959744;28;20310;-42
2022/10/31 02:15:03;;;;;;;8.88;1.42;;;;;;;12.16;98.12;99883.78;4947869;29;20414;-43
2022/10/31 02:17:31;;;;;;;7.82;1.50;;;;;;;12.13;97.89;99893.66;4948049;28;20043;-42
2022/10/31 02:20:11;;;;;;;7.85;1.42;;;;;;;12.13;97.83;99890.88;4950581;28;20055;-41
2022/10/31 02:23:15;;;;;;;10.65;1.73;;;;;;;12.11;97.77;99887.69;4949178;28;20480;-42
2022/10/31 02:26:03;;;;;;;10.73;1.70;;;;;;;12.10;97.74;99891.63;4937852;28;20090;-42
2022/10/31 02:28:52;;;;;;;10.95;1.80;;;;;;;12.09;97.52;99883.69;4954197;28;20055;-42
2022/10/31 02:31:44;;;;;;;13.88;2.95;;;;;;;12.11;97.39;99887.69;4954439;28;20138;-42
2022/10/31 02:34:34;;;;;;;9.20;2.15;;;;;;;12.15;97.44;99873.88;4953903;28;20070;-43
2022/10/31 02:37:17;;;;;;;14.45;2.53;;;;;;;12.21;96.85;99869.56;4954604;28;20118;-42
2022/10/31 02:39:59;;;;;;;13.65;2.58;;;;;;;12.24;96.79;99860.50;4954491;28;20047;-42
2022/10/31 02:42:50;;;;;;;9.82;2.08;;;;;;;12.27;96.45;99858.94;4954145;28;20047;-47
2022/10/31 02:45:26;;;;;;;8.73;2.22;;;;;;;12.25;96.09;99864.09;4952910;28;20479;-44
2022/10/31 02:47:59;;;;;;;16.23;2.85;;;;;;;12.26;96.16;99854.59;4953367;28;20510;-46
2022/10/31 02:50:30;;;;;;;14.52;2.75;;;;;;;12.29;95.82;99851.84;4949443;28;20043;-45
2022/10/31 02:52:57;;;;;;;13.20;4.40;;;;;;;12.33;95.85;99849.13;4951442;28;20425;-48
2022/10/31 02:55:26;;;;;;;11.10;1.65;;;;;;;12.40;95.70;99851.97;4951910;28;20051;-44
2022/10/31 02:57:58;;;;;;;8.07;1.38;;;;;;;12.45;95.38;99841.31;4952538;29;20047;-43
2022/10/31 03:04:13;;;;;;;11.43;2.30;;;;;;;12.51;95.13;99825.94;4928835;29;20059;-42
2022/10/31 03:06:57;;;;;;;12.13;1.92;;;;;;;12.49;94.95;99816.38;4912719;29;20397;-42
2022/10/31 03:09:30;;;;;;;11.15;2.55;;;;;;;12.48;94.88;99823.09;4911643;29;20388;-46
2022/10/31 03:12:14;;;;;;;15.98;2.55;;;;;;;12.44;94.73;99820.31;4924774;29;20051;-42
2022/10/31 03:15:04;;;;;;;14.00;2.28;;;;;;;12.44;94.68;99816.72;4931840;29;20453;-42
2022/10/31 03:17:41;;;;;;;12.48;2.10;;;;;;;12.41;94.82;99834.94;4936437;28;20057;-42
2022/10/31 03:20:10;;;;;;;14.15;2.30;;;;;;;12.41;94.56;99823.84;4937604;28;20071;-42
2022/10/31 03:22:42;;;;;;;11.43;1.85;;;;;;;12.41;94.77;99817.50;4931939;29;20521;-42
2022/10/31 03:25:11;;;;;;;7.75;1.83;;;;;;;12.42;94.81;99817.09;4933920;29;20446;-42
2022/10/31 03:27:42;;;;;;;9.15;2.85;;;;;;;12.45;94.55;99821.09;4934168;29;20130;-42
2022/10/31 03:30:09;;;;;;;9.38;3.15;;;;;;;12.51;94.39;99814.81;4929474;29;20316;-42
2022/10/31 03:32:55;;;;;;;11.02;1.67;;;;;;;12.50;94.17;99818.78;4945817;28;20036;-45
2022/10/31 03:35:24;;;;;;;12.30;2.03;;;;;;;12.52;94.16;99810.84;4932744;29;20050;-45
2022/10/31 03:37:53;;;;;;;8.40;1.85;;;;;;;12.51;93.90;99809.28;4929095;29;20121;-42
2022/10/31 03:40:23;;;;;;;10.95;1.85;;;;;;;12.51;94.00;99809.28;4929725;29;20035;-43
2022/10/31 03:42:57;;;;;;;10.10;1.75;;;;;;;12.52;93.74;99815.63;4931251;29;20036;-43
2022/10/31 03:45:27;;;;;;;9.85;1.52;;;;;;;12.57;93.63;99818.88;4937599;28;20091;-42
2022/10/31 03:47:56;;;;;;;11.90;1.65;;;;;;;12.58;93.33;99809.34;4933117;29;20047;-42
2022/10/31 03:50:28;;;;;;;8.02;1.75;;;;;;;12.54;93.31;99814.06;4931501;29;20044;-42
2022/10/31 03:53:03;;;;;;;;;;;;;;;12.50;93.27;99817.97;4931968;29;20465;-42
2022/10/31 03:56:02;;;;;;;5.40;1.08;;;;;;;12.45;93.09;99805.22;4933039;29;19938;-42
2022/10/31 03:58:37;;;;;;;9.55;1.55;;;;;;;12.39;93.14;99798.41;4910334;29;20056;-44
2022/10/31 04:01:06;;;;;;;14.75;1.65;;;;;;;12.37;93.37;99803.56;4934896;29;20421;-42
2022/10/31 04:03:37;;;;;;;7.22;2.33;;;;;;;12.35;93.48;99800.38;4951514;28;20058;-42
2022/10/31 04:06:09;;;;;;;11.13;2.50;;;;;;;12.36;93.36;99807.53;4950963;28;20055;-46
2022/10/31 04:08:47;;;;;;;11.07;2.67;;;;;;;12.39;93.34;99803.19;4951745;28;20039;-42
2022/10/31 04:11:19;;;;;;;12.55;1.92;;;;;;;12.41;93.53;99803.59;4950836;28;20500;-42
2022/10/31 04:13:47;;;;;;;16.10;3.78;;;;;;;12.45;93.24;99804.44;4948229;29;20047;-42
2022/10/31 04:16:18;;;;;;;12.57;2.28;;;;;;;12.48;93.15;99793.38;4943435;29;20047;-42
2022/10/31 04:18:44;;;;;;;7.50;1.67;;;;;;;12.51;93.23;99800.94;4950451;28;20047;-42
2022/10/31 04:21:11;;;;;;;15.30;1.95;;;;;;;12.52;93.17;99794.19;4948173;29;20052;-42
2022/10/31 04:23:38;;;;;;;12.80;2.33;;;;;;;12.51;93.21;99795.41;4950371;28;20046;-42
2022/10/31 04:26:04;;;;;;;8.75;1.27;;;;;;;12.51;93.39;99797.38;4949575;29;20433;-42
2022/10/31 04:28:33;;;;;;;5.15;2.08;;;;;;;12.49;93.36;99796.94;4951470;29;20039;-42
2022/10/31 04:31:00;;;;;;;10.77;2.88;;;;;;;12.49;93.51;99794.97;4947583;29;20031;-41
2022/10/31 04:33:27;;;;;;;13.07;3.47;;;;;;;12.47;93.50;99800.09;4949236;28;20031;-42
2022/10/31 04:35:54;;;;;;;8.68;2.10;;;;;;;12.47;93.71;99797.31;4943130;28;20048;-42
2022/10/31 04:38:21;;;;;;;13.30;2.17;;;;;;;12.48;93.89;99793.38;4960519;28;20043;-42
2022/10/31 04:40:47;;;;;;;7.22;1.73;;;;;;;12.49;93.85;99794.97;4950150;29;20047;-42
2022/10/31 04:43:14;;;;;;;8.55;2.40;;;;;;;12.51;93.94;99792.63;4948803;29;20456;-42
2022/10/31 04:45:41;;;;;;;7.13;1.90;;;;;;;12.53;93.86;99790.25;4947614;28;20063;-42
2022/10/31 04:48:07;;;;;;;9.88;1.88;;;;;;;12.55;93.88;99787.88;4948742;28;20071;-42
2022/10/31 04:50:34;;;;;;;11.93;2.65;;;;;;;12.57;93.65;99791.09;4948544;28;20062;-42
2022/10/31 04:53:02;;;;;;;9.50;1.08;;;;;;;12.59;93.99;99777.63;4949087;28;20055;-42
2022/10/31 04:55:28;;;;;;;8.13;1.30;;;;;;;12.62;93.61;99776.88;4949352;28;20047;-42
2022/10/31 04:57:55;;;;;;;7.38;1.23;;;;;;;12.59;93.74;99774.84;4950786;28;20109;-42
2022/10/31 05:00:22;;;;;;;6.75;1.13;;;;;;;12.57;93.59;99774.44;4947070;29;20041;-42
2022/10/31 05:02:54;;;;;;;5.18;1.25;;;;;;;12.53;93.48;99773.59;4951089;28;20421;-45
2022/10/31 05:05:28;;;;;;;8.73;2.28;;;;;;;12.50;93.37;99762.44;4941908;29;20434;-42
2022/10/31 05:07:55;;;;;;;8.82;1.45;;;;;;;12.45;93.54;99755.28;4943233;28;20047;-42
2022/10/31 05:10:24;;;;;;;7.93;1.40;;;;;;;12.44;93.41;99752.88;4945491;29;20043;-42
2022/10/31 05:12:56;;;;;;;13.00;1.85;;;;;;;12.42;93.60;99756.03;4948777;28;20490;-42
2022/10/31 05:15:25;;;;;;;13.38;1.88;;;;;;;12.43;93.43;99752.09;4945522;28;20047;-42
2022/10/31 05:17:53;;;;;;;14.80;3.28;;;;;;;12.42;93.31;99761.56;4949928;28;20071;-41
2022/10/31 05:20:22;;;;;;;11.95;1.80;;;;;;;12.40;93.29;99757.59;4950685;29;20401;-42
2022/10/31 05:22:51;;;;;;;19.70;4.88;;;;;;;12.37;93.18;99756.38;4949064;29;20128;-42
2022/10/31 05:25:19;;;;;;;8.90;1.83;;;;;;;12.34;93.19;99759.91;4947606;29;20039;-46
2022/10/31 05:27:48;;;;;;;9.57;1.85;;;;;;;12.34;93.25;99748.03;4950175;29;20662;-42
2022/10/31 05:30:21;;;;;;;10.38;2.53;;;;;;;12.32;93.09;99750.38;4948798;28;20051;-42
2022/10/31 05:32:49;;;;;;;8.48;2.30;;;;;;;12.32;93.27;99742.84;4949434;28;20482;-42
2022/10/31 05:35:18;;;;;;;7.47;1.75;;;;;;;12.32;93.23;99742.84;4947383;29;20286;-46
2022/10/31 05:37:45;;;;;;;13.90;1.77;;;;;;;12.36;93.29;99749.25;4948374;28;20047;-42
2022/10/31 05:40:14;;;;;;;7.47;1.50;;;;;;;12.39;93.13;99731.81;4946686;28;20050;-49
2022/10/31 05:42:41;;;;;;;9.07;1.77;;;;;;;12.42;93.10;99722.72;4949876;28;20151;-43
2022/10/31 05:45:10;;;;;;;8.93;1.60;;;;;;;12.47;93.08;99718.81;4944088;29;20046;-42
2022/10/31 05:47:37;;;;;;;19.10;2.80;;;;;;;12.48;92.97;99721.19;4946958;29;20051;-42
2022/10/31 05:50:05;;;;;;;6.25;1.20;;;;;;;12.49;93.10;99711.69;4948166;28;20047;-43
2022/10/31 05:52:32;;;;;;;3.85;0.93;;;;;;;12.50;92.95;99723.56;4949767;28;20051;-46
2022/10/31 05:54:58;;;;;;;9.25;0.80;;;;;;;12.50;93.02;99721.59;4946876;29;20863;-43
2022/10/31 05:57:25;;;;;;;4.05;2.00;;;;;;;12.51;93.17;99717.66;4948002;29;20512;-42
2022/10/31 05:59:55;;;;;;;5.80;1.00;;;;;;;12.54;93.41;99718.88;4950114;28;20757;-49
2022/10/31 06:02:21;;;;;;;6.38;0.93;;;;;;;12.57;93.58;99718.91;4946168;28;20043;-42
2022/10/31 06:04:48;;;;;;;8.32;1.77;;;;;;;12.58;93.48;99720.47;4946362;28;20050;-44
2022/10/31 06:07:15;;;;;;;5.05;1.65;;;;;;;12.59;93.57;99710.19;4946901;28;20035;-42
2022/10/31 06:09:44;;;;;;;11.88;1.88;;;;;;;12.60;93.33;99706.22;4946484;29;20057;-41
2022/10/31 06:12:11;;;;;;;10.30;1.30;;;;;;;12.64;93.37;99696.75;4946507;29;20051;-43
2022/10/31 06:14:37;;;;;;;7.75;1.55;;;;;;;12.67;93.31;99703.50;4940240;28;20552;-43
2022/10/31 06:17:04;;;;;;;7.60;1.30;;;;;;;12.65;93.40;99698.34;4952072;28;20062;-43
2022/10/31 06:19:31;;;;;;;11.00;1.55;;;;;;;12.68;93.30;99694.00;4950765;29;20047;-42
2022/10/31 06:21:57;;;;;;;18.00;2.75;;;;;;;12.71;93.33;99696.78;4955905;28;20047;-42
2022/10/31 06:24:24;;;;;;;11.52;1.80;;;;;;;12.75;93.26;99680.97;4949257;29;20557;-42
2022/10/31 06:26:51;;;;;;;9.90;2.03;;;;;;;12.77;93.02;99684.16;4950958;28;20039;-43
2022/10/31 06:29:17;;;;;;;10.98;1.80;;;;;;;12.78;93.09;99680.19;4947429;28;20044;-43
2022/10/31 06:31:44;;;;;;;12.63;1.90;;;;;;;12.82;92.86;99685.75;4943388;28;20580;-45
2022/10/31 06:34:11;;;;;;;13.15;2.67;;;;;;;12.84;92.79;99677.84;4948807;29;20047;-42
2022/10/31 06:36:37;;;;;;;17.05;2.58;;;;;;;12.83;92.67;99685.41;4950465;29;20044;-42
2022/10/31 06:39:04;;;;;;;15.18;2.75;;;;;;;12.87;92.68;99681.84;4950565;29;20060;-43
2022/10/31 06:41:30;;;;;;;11.77;2.20;;;;;;;12.86;92.75;99691.34;4949813;29;20662;-42
2022/10/31 06:43:57;;;;;;;7.28;1.63;;;;;;;12.89;92.54;99696.16;4950308;28;20047;-43
2022/10/31 06:46:24;;;;;;;12.02;1.75;;;;;;;12.90;92.43;99686.59;4945874;29;20057;-42
2022/10/31 06:48:50;;;;;;;7.50;2.35;;;;;;;12.92;92.37;99695.38;4947788;28;20138;-42
2022/10/31 06:51:17;;;;;;;11.13;1.67;;;;;;;12.94;92.15;99693.00;4949213;28;20043;-42
2022/10/31 06:53:44;;;;;;;9.23;1.15;;;;;;;12.96;92.16;99697.00;4948658;28;20279;-42
2022/10/31 06:56:10;;;;;;;7.80;1.67;;;;;;;12.97;92.11;99687.47;4948533;28;20142;-43
2022/10/31 06:58:37;;;;;;;8.85;1.83;;;;;;;12.97;92.11;99692.22;4949599;28;20047;-42
2022/10/31 07:01:04;;;;;;;9.60;2.35;;;;;;;12.96;92.19;99696.19;4945653;28;20098;-49
2022/10/31 07:03:31;;;;;;;8.88;2.97;;;;;;;12.93;92.21;99697.75;4946239;29;20164;-44
2022/10/31 07:05:57;;;;;;;13.30;3.05;;;;;;;12.94;92.12;99695.78;4948318;29;20519;-42
2022/10/31 07:08:24;;;;;;;6.95;2.33;;;;;;;12.94;92.15;99698.56;4939863;28;20043;-42
2022/10/31 07:10:54;;;;;;;15.00;2.17;;;;;;;12.92;92.13;99701.69;4947087;28;20075;-45
2022/10/31 07:13:25;;;;;;;9.40;1.50;;;;;;;12.92;92.31;99706.50;4944619;28;20445;-43
2022/10/31 07:15:54;;;;;;;7.75;1.65;;;;;;;12.95;92.56;99717.59;4948156;28;20070;-43
2022/10/31 07:18:21;;;;;;;9.10;1.55;;;;;;;13.01;92.32;99720.81;4949406;29;20604;-46
2022/10/31 07:20:49;;;;;;;10.98;1.63;;;;;;;13.03;92.19;99719.25;4948278;28;20059;-42
2022/10/31 07:23:16;;;;;;;11.48;1.80;;;;;;;13.06;92.37;99724.03;4951727;28;20039;-43
2022/10/31 07:25:42;;;;;;;12.55;2.53;;;;;;;13.07;92.49;99730.44;4949331;29;20039;-47
2022/10/31 07:28:10;;;;;;;6.63;1.60;;;;;;;13.07;92.40;99730.44;4950703;28;20047;-43
2022/10/31 07:30:37;;;;;;;7.53;1.60;;;;;;;13.08;92.35;99720.91;4951954;28;20058;-42
2022/10/31 07:33:05;;;;;;;8.95;1.63;;;;;;;13.07;92.48;99731.22;4950688;28;20047;-43
2022/10/31 07:35:32;;;;;;;36.05;4.57;;;;;;;13.05;92.53;99728.00;4951171;28;20139;-43
2022/10/31 07:38:08;;;;;;;9.90;1.63;;;;;;;13.08;92.62;99729.25;4948552;28;20079;-42
2022/10/31 07:40:35;;;;;;;11.32;1.60;;;;;;;13.11;92.58;99742.34;4951936;29;20413;-42
2022/10/31 07:43:02;;;;;;;9.85;1.90;;;;;;;13.12;92.41;99727.28;4951205;28;20039;-42
2022/10/31 07:45:29;;;;;;;10.32;1.92;;;;;;;13.14;92.17;99742.38;4949499;28;20047;-42
2022/10/31 07:47:56;;;;;;;10.10;1.55;;;;;;;13.14;92.29;99742.38;4950728;28;20055;-45
2022/10/31 07:50:32;;;;;;;12.05;1.77;;;;;;;13.18;92.04;99742.44;4948472;28;20106;-42
2022/10/31 07:53:04;;;;;;;7.45;1.58;;;;;;;13.21;92.04;99753.53;4950854;28;20073;-42
2022/10/31 07:55:31;;;;;;;5.63;1.30;;;;;;;13.25;91.75;99739.69;4946965;28;20051;-51
2022/10/31 07:58:13;;;;;;;11.13;1.60;;;;;;;13.25;91.62;99753.59;4952045;28;20526;-43
2022/10/31 08:00:41;;;;;;;8.32;1.65;;;;;;;13.24;91.69;99743.63;4950751;28;20105;-42
2022/10/31 08:03:14;;;;;;;10.70;1.75;;;;;;;13.22;91.60;99749.59;4951426;28;20067;-42
2022/10/31 08:05:41;;;;;;;10.07;1.92;;;;;;;13.20;91.63;99753.94;4948933;28;20043;-42
2022/10/31 08:08:08;;;;;;;12.20;3.17;;;;;;;13.18;91.80;99742.44;4951133;28;20050;-42
2022/10/31 08:10:36;;;;;;;9.70;2.15;;;;;;;13.17;91.83;99738.03;4948396;28;20489;-44
2022/10/31 08:13:08;;;;;;;7.32;1.50;;;;;;;13.21;91.42;99747.22;4938385;28;20480;-44
2022/10/31 08:15:38;;;;;;;8.93;1.70;;;;;;;13.25;91.56;99736.91;4948319;29;20061;-42
2022/10/31 08:18:06;;;;;;;15.70;2.75;;;;;;;13.28;91.20;99738.91;4957793;28;20051;-42
2022/10/31 08:20:33;;;;;;;14.80;3.42;;;;;;;13.30;91.08;99744.88;4946034;28;20491;-42
2022/10/31 08:23:02;;;;;;;10.40;1.83;;;;;;;13.30;90.97;99734.56;4948233;29;20051;-42
2022/10/31 08:25:31;;;;;;;10.85;2.08;;;;;;;13.35;90.67;99727.81;4950936;28;20078;-42
2022/10/31 08:28:05;;;;;;;18.48;4.00;;;;;;;13.38;90.43;99735.38;4950986;29;20058;-42
2022/10/31 08:30:34;;;;;;;16.60;2.03;;;;;;;13.41;90.37;99746.53;4950324;29;20051;-42
2022/10/31 08:33:13;;;;;;;11.18;2.78;;;;;;;13.46;90.05;99739.81;4951218;28;20051;-42
2022/10/31 08:35:40;;;;;;;10.88;2.83;;;;;;;13.50;89.78;99737.88;4952003;28;20051;-42
2022/10/31 08:38:09;;;;;;;9.77;1.95;;;;;;;13.50;89.59;99737.88;4952111;28;20039;-42
2022/10/31 08:40:37;;;;;;;8.10;1.88;;;;;;;13.53;89.38;99741.84;4952427;29;20055;-42
2022/10/31 08:43:22;;;;;;;14.30;2.53;;;;;;;13.55;89.14;99756.97;4946140;28;20134;-42
2022/10/31 08:45:49;;;;;;;10.60;2.28;;;;;;;13.55;89.04;99740.28;4939751;29;20110;-43
2022/10/31 08:48:17;;;;;;;13.18;1.95;;;;;;;13.58;88.73;99735.91;4939500;29;20142;-43
2022/10/31 08:50:44;;;;;;;7.43;2.17;;;;;;;13.60;88.47;99736.31;4947355;28;20043;-42
2022/10/31 08:53:12;;;;;;;8.38;1.75;;;;;;;13.62;88.30;99740.28;4948154;28;20145;-42
2022/10/31 08:55:41;;;;;;;18.85;4.07;;;;;;;13.63;88.00;99728.00;4950628;29;20055;-42
2022/10/31 08:58:14;;;;;;;12.27;4.28;;;;;;;13.66;87.38;99729.97;4949234;29;20058;-42
2022/10/31 09:00:41;;;;;;;9.30;2.22;;;;;;;13.71;86.97;99732.41;4949044;29;20040;-41
2022/10/31 09:03:13;;;;;;;8.02;2.92;;;;;;;13.77;86.53;99733.59;4943575;28;20047;-42
2022/10/31 09:05:40;;;;;;;10.50;2.72;;;;;;;13.79;86.01;99725.66;4951229;28;20058;-42
2022/10/31 09:08:08;;;;;;;7.20;1.90;;;;;;;13.83;86.03;99745.94;4950416;28;20051;-42
2022/10/31 09:10:42;;;;;;;9.32;2.10;;;;;;;13.83;85.95;99734.81;4951914;28;20055;-42
2022/10/31 09:13:11;;;;;;;10.48;1.90;;;;;;;13.84;85.69;99736.44;4951413;28;20497;-43
2022/10/31 09:15:40;;;;;;;12.07;2.05;;;;;;;13.84;85.63;99752.31;4951429;28;20051;-42
2022/10/31 09:18:08;;;;;;;12.10;2.25;;;;;;;13.83;85.71;99739.59;4949628;29;20058;-42
2022/10/31 09:20:36;;;;;;;8.27;1.95;;;;;;;13.82;85.49;99744.34;4958227;28;20054;-42
2022/10/31 09:23:06;;;;;;;10.55;1.92;;;;;;;13.83;85.50;99751.53;4950163;28;20051;-42
2022/10/31 09:25:34;;;;;;;18.75;2.63;;;;;;;13.85;85.41;99749.13;4951409;29;20055;-46
2022/10/31 09:28:03;;;;;;;6.95;1.70;;;;;;;13.85;85.59;99751.91;4949760;29;20054;-42
2022/10/31 09:30:33;;;;;;;11.80;2.10;;;;;;;13.84;85.75;99747.56;4951313;29;20393;-43
2022/10/31 09:33:06;;;;;;;7.75;1.60;;;;;;;13.81;85.70;99744.75;4949804;29;20047;-42
2022/10/31 09:35:34;;;;;;;11.73;1.63;;;;;;;13.81;85.86;99750.31;4951466;28;20445;-42
2022/10/31 09:38:03;;;;;;;15.55;2.67;;;;;;;13.79;86.13;99744.34;4947835;28;20054;-42
2022/10/31 09:40:41;;;;;;;10.13;1.65;;;;;;;13.78;86.00;99740.78;4951414;28;20680;-45
2022/10/31 09:43:45;;;;;;;12.73;1.77;;;;;;;13.80;86.10;99740.38;4950798;28;20035;-42
2022/10/31 09:46:23;;;;;;;13.15;2.05;;;;;;;13.78;86.14;99738.00;4946332;29;20043;-48
2022/10/31 09:49:25;;;;;;;10.05;3.08;;;;;;;13.78;86.12;99732.44;4948512;29;20043;-42
2022/10/31 09:52:16;;;;;;;11.93;1.63;;;;;;;13.77;86.06;99741.94;4947218;29;20054;-42
2022/10/31 09:54:53;;;;;;;11.27;1.83;;;;;;;13.81;86.04;99742.78;4938968;29;20042;-42
2022/10/31 09:57:27;;;;;;;12.55;2.15;;;;;;;13.84;85.71;99736.44;4942959;29;20043;-43
2022/10/31 09:59:54;;;;;;;16.02;2.85;;;;;;;13.88;85.69;99730.84;4944295;29;20047;-42
2022/10/31 10:02:24;;;;;;;8.65;1.98;;;;;;;13.91;85.72;99730.88;4954338;28;20054;-43
2022/10/31 10:05:00;;;;;;;14.57;1.90;;;;;;;13.94;85.60;99718.16;4950901;29;21862;-42
2022/10/31 10:07:49;;;;;;;14.50;2.92;;;;;;;13.99;85.24;99731.69;4949236;29;20035;-42
2022/10/31 10:10:26;;;;;;;21.08;3.72;;;;;;;14.03;85.07;99738.88;4946436;28;20172;-50
2022/10/31 10:13:44;;;;;;;5.97;1.45;;;;;;;14.13;84.75;99725.38;4941651;29;20050;-43
2022/10/31 10:16:33;;;;;;;10.23;2.78;;;;;;;14.17;84.68;99728.97;4922779;29;20062;-46
2022/10/31 10:19:38;;;;;;;12.18;1.92;;;;;;;14.24;84.20;99737.34;4934800;29;20071;-45
2022/10/31 10:22:11;;;;;;;8.65;2.22;;;;;;;14.26;84.37;99735.75;4942909;28;20051;-44
2022/10/31 10:24:58;;;;;;;11.15;2.33;;;;;;;14.30;84.39;99730.19;4946834;28;20061;-42
2022/10/31 10:27:44;;;;;;;16.27;2.28;;;;;;;14.34;83.85;99731.84;4945892;28;20502;-43
2022/10/31 10:30:22;;;;;;;8.32;2.33;;;;;;;14.39;83.82;99734.22;4936674;29;20501;-42
2022/10/31 10:32:57;;;;;;;9.98;1.65;;;;;;;14.42;83.55;99744.59;4963995;28;20035;-42
2022/10/31 10:35:36;;;;;;;13.15;2.28;;;;;;;14.47;83.42;99741.41;4948074;28;20437;-45
2022/10/31 10:38:21;;;;;;;17.05;2.90;;;;;;;14.50;83.52;99737.84;4949353;28;20038;-42
2022/10/31 10:40:48;;;;;;;18.35;2.22;;;;;;;14.53;83.40;99739.03;4948252;28;20055;-42
2022/10/31 10:43:26;;;;;;;9.77;2.20;;;;;;;14.58;83.14;99725.50;4948904;29;20039;-41
2022/10/31 10:49:19;;;;;;;7.57;1.75;;;;;;;14.77;82.51;99729.91;4950415;29;20497;-48
2022/10/31 10:52:00;;;;;;;9.35;1.98;;;;;;;14.85;82.20;99739.81;4939976;29;20460;-47
2022/10/31 10:55:02;;;;;;;6.07;1.50;;;;;;;14.90;81.65;99745.03;4952814;28;20483;-41
2022/10/31 10:57:44;;;;;;;9.63;2.03;;;;;;;14.96;81.68;99728.66;4954412;28;20065;-41
2022/10/31 11:00:25;;;;;;;10.75;1.83;;;;;;;15.03;81.43;99735.06;4951364;29;20050;-42
2022/10/31 11:02:53;;;;;;;11.82;1.85;;;;;;;15.13;80.98;99736.22;4949510;28;20098;-42
2022/10/31 11:05:45;;;;;;;9.50;1.85;;;;;;;15.21;81.10;99735.84;4951835;28;20389;-42
2022/10/31 11:08:27;;;;;;;10.23;1.98;;;;;;;15.27;80.98;99741.81;4937588;28;20047;-42
2022/10/31 11:11:00;;;;;;;8.43;2.00;;;;;;;15.36;80.48;99744.16;4940191;29;20052;-41
2022/10/31 11:13:27;;;;;;;8.30;1.90;;;;;;;15.41;80.16;99738.19;4950577;29;20043;-42
2022/10/31 11:16:08;;;;;;;4.85;1.52;;;;;;;15.45;79.87;99739.75;4948051;29;20043;-47
2022/10/31 11:18:45;;;;;;;12.32;1.98;;;;;;;15.42;79.63;99726.63;4952645;28;20106;-42
2022/10/31 11:21:21;;;;;;;11.02;1.50;;;;;;;15.40;79.76;99729.03;4952467;28;20043;-47
2022/10/31 11:23:47;;;;;;;15.95;3.58;;;;;;;15.38;79.52;99725.81;4950152;28;20145;-43
2022/10/31 11:26:21;;;;;;;13.23;2.40;;;;;;;15.41;79.73;99732.63;4950299;28;20043;-43
2022/10/31 11:28:58;;;;;;;13.10;2.67;;;;;;;15.40;79.61;99726.22;4967882;28;20438;-42
2022/10/31 11:31:26;;;;;;;31.58;3.85;;;;;;;15.41;79.44;99738.19;4948443;28;20043;-42
2022/10/31 11:34:02;;;;;;;11.48;2.08;;;;;;;15.43;79.45;99730.22;4952506;28;20055;-42
2022/10/31 11:36:42;;;;;;;8.25;1.38;;;;;;;15.47;79.42;99729.03;4945027;29;20070;-41
2022/10/31 11:39:17;;;;;;;9.88;2.38;;;;;;;15.55;79.37;99727.00;4948325;29;20047;-41
2022/10/31 11:41:45;;;;;;;6.90;1.95;;;;;;;15.61;79.43;99733.78;4945755;28;20090;-43
2022/10/31 11:44:16;;;;;;;10.80;1.98;;;;;;;15.63;79.13;99729.38;4951808;28;20051;-47
2022/10/31 11:46:58;;;;;;;6.13;1.80;;;;;;;15.60;78.83;99723.81;4951491;29;20043;-42
2022/10/31 11:49:29;;;;;;;12.25;1.85;;;;;;;15.57;78.89;99727.41;4950898;29;20054;-42
2022/10/31 11:52:00;;;;;;;7.30;2.42;;;;;;;15.55;78.55;99732.59;4948457;29;20035;-43
2022/10/31 11:54:47;;;;;;;9.43;2.75;;;;;;;15.56;78.65;99736.97;4934883;28;20498;-42
2022/10/31 11:57:28;;;;;;;2.97;1.02;;;;;;;15.43;78.30;99736.59;4949102;28;20134;-44